Redwood City, CA

6:34 PM PDT on August 22, 2014 (GMT -0700)
San Carlos | Change Station
CLOSE
Current Station
Airport
Location: San Carlos,
Elevation: 3 ft
Nearby Weather Stations

Elev 3 ft 37.51 °N, 122.25 °W | Updated 45 minutes ago

Partly Cloudy
Partly Cloudy
68 °F
Feels Like 68 °F
N
16
Wind Variable Wind from West
Gusts 25 mph

Today
High -- | Low -- °F
--% Chance of Precip.
Yesterday
High -- | Low -- °F
Precip. -- in
6:30 AM 7:52 PM
Waning Crescent, 6% visible
Pressure 29.91 in
Visibility 10.0 miles
Clouds Few 1500 ft
Dew Point 57 °F
Humidity 68%
Rainfall 0.00 in
Snow Depth Not available.
UV 2 out of 12
Pollen 5.70 out of 12
Ozone Good
PM2.5 Good
Flu Activity Not available.
METAR KSQL 230049Z 28014G22KT 10SM FEW015 20/14 A2991

More Conditions Fewer Conditions

Pressure 29.91 in
Visibility 10.0 miles
Clouds Few 1500 ft
Dew Point 57 °F
Humidity 68%
Rainfall 0.00 in
Snow Depth Not available.
UV 2 out of 12
Pollen 5.70 out of 12
Ozone Good
PM2.5 Good
Flu Activity Not available.
METAR KSQL 230049Z 28014G22KT 10SM FEW015 20/14 A2991

More Conditions Fewer Conditions

10-Day Weather Forecast

Almanac

Astronomy

Aug. 22, 2014 Rise Set
Actual Time 6:30 AM PDT 7:52 PM PDT
Civil Twilight 6:03 AM PDT 8:19 PM PDT
Nautical Twilight 5:30 AM PDT 8:51 PM PDT
Astronomical Twilight 4:56 AM PDT 9:26 PM PDT
Moon 3:59 AM PDT (8/22) 6:02 PM PDT (8/22)
Length of Visible Light 14h 15m
Length of Day
13h 21m
Tomorrow will be 2m 13s shorter.
Waning Crescent, 6% of the Moon is Illuminated
Today
Waning Crescent
Aug 25
New
Sep 2
First Quarter
Sep 8
Full
Sep 15
Last Quarter

Today's Extremes

State Highs State Lows

Community

WunderPhotos

Upload Photos

1,746,337 photos uploaded!

WunderBlogs® & News

Nearby

Air Quality

  Air Quality AQ Index Pollutant
Yesterday Good
OZONE
Yesterday Good
PM2.5
Current Good
PM2.5
Current Good
OZONE
Friday Good
OZONE
Saturday Good
OZONE
Sunday Good
OZONE
Monday Good
OZONE
Tuesday Good
PM2.5
Wednesday Moderate
PM2.5

Snow Depth

Station Depth Elevation
Echo Peak 0 in 7800 ft
Leavitt Meadows 1 in 7200 ft
Summit Meadow 1 in 9122 ft
CSS Lab 4 in 6900 ft
Adin Mountain 1 in 6200 ft

Earthquake Activity

City Distance Mag. Time & Date
Berkeley, California 24 miles 2.6 7:41 PM PDT
2014-08-16
King City, California 113 miles 2.7 10:26 PM PDT
2014-08-15
Minimum magnitude displayed is 2.5.

Coastal Water Temperatures

Place Temperature
No Stations Reporting

Nearby Weather Stations